Time;durP1;ratioP1;P1;durP2;ratioP2;P2;SDS_P1;SDS_P2;PMS_P1;PMS_P2;Temp;Humidity;BMP_temperature;BMP_pressure;BME280_temperature;BME280_humidity;BME280_pressure;Samples;Min_cycle;Max_cycle;Signal;HPM_P1;HPM_P2
2022/06/20 00:00:58;;;;;;;5.28;2.83;;;20.80;99.90;;;;;;5012864;28;20194;-76
2022/06/20 00:03:27;;;;;;;4.93;2.30;;;20.80;99.90;;;;;;5013689;28;20171;-76
2022/06/20 00:05:53;;;;;;;4.75;2.38;;;20.90;99.90;;;;;;5012417;28;20213;-76
2022/06/20 00:08:19;;;;;;;6.13;2.45;;;20.90;99.90;;;;;;4996203;28;20171;-76
2022/06/20 00:10:46;;;;;;;4.78;2.55;;;20.90;99.90;;;;;;5013812;28;20660;-76
2022/06/20 00:13:33;;;;;;;6.85;2.40;;;21.00;99.90;;;;;;5012257;28;20182;-76
2022/06/20 00:16:02;;;;;;;3.75;2.28;;;20.70;99.90;;;;;;5012219;28;20207;-76
2022/06/20 00:18:30;;;;;;;5.65;2.45;;;20.70;99.90;;;;;;5012205;28;20187;-76
2022/06/20 00:20:56;;;;;;;4.70;2.40;;;20.70;99.90;;;;;;5012392;28;20210;-76
2022/06/20 00:23:21;;;;;;;4.35;2.22;;;20.60;99.90;;;;;;5012338;28;20278;-76
2022/06/20 00:25:47;;;;;;;5.82;2.50;;;20.60;99.90;;;;;;5012092;28;20197;-76
2022/06/20 00:28:14;;;;;;;5.53;2.35;;;20.50;99.90;;;;;;4995888;28;20175;-76
2022/06/20 00:30:40;;;;;;;4.07;2.20;;;20.60;99.90;;;;;;4995660;28;20725;-76
2022/06/20 00:33:06;;;;;;;4.57;2.47;;;20.30;99.90;;;;;;5011869;28;20270;-76
2022/06/20 00:35:33;;;;;;;3.85;2.45;;;20.30;99.90;;;;;;4995561;28;20198;-76
2022/06/20 00:38:00;;;;;;;4.75;2.90;;;20.30;99.90;;;;;;5011957;28;20175;-76
2022/06/20 00:40:33;;;;;;;3.88;2.58;;;20.40;99.90;;;;;;5011971;28;20207;-76
2022/06/20 00:42:59;;;;;;;4.43;2.17;;;20.40;99.90;;;;;;5011767;28;20202;-76
2022/06/20 00:45:30;;;;;;;4.95;2.40;;;20.20;99.90;;;;;;5011877;28;20198;-76
2022/06/20 00:48:02;;;;;;;4.45;2.80;;;20.10;99.90;;;;;;5013278;28;20171;-76
2022/06/20 00:50:31;;;;;;;4.18;2.28;;;20.20;99.90;;;;;;5011844;28;20267;-76
2022/06/20 00:53:02;;;;;;;4.53;2.35;;;20.10;99.90;;;;;;5011424;28;20211;-76
2022/06/20 00:55:45;;;;;;;3.42;2.38;;;19.90;99.90;;;;;;5011657;28;20207;-76
2022/06/20 00:58:44;;;;;;;4.80;2.42;;;19.80;99.90;;;;;;5013297;28;20185;-76
2022/06/20 01:01:14;;;;;;;3.25;2.28;;;19.90;99.90;;;;;;5011461;28;20568;-76
2022/06/20 01:03:50;;;;;;;7.97;2.63;;;19.90;99.90;;;;;;5011514;28;20200;-76
2022/06/20 01:06:33;;;;;;;3.72;2.30;;;20.10;99.90;;;;;;5011431;28;20656;-76
2022/06/20 01:09:05;;;;;;;7.68;2.78;;;20.00;99.90;;;;;;5011717;28;20175;-76
2022/06/20 01:11:58;;;;;;;4.72;2.45;;;20.00;99.90;;;;;;4995128;28;20213;-76
2022/06/20 01:14:33;;;;;;;4.35;2.30;;;20.10;99.90;;;;;;5007995;28;20658;-76
2022/06/20 01:17:01;;;;;;;4.75;2.45;;;20.10;99.90;;;;;;5011317;28;20197;-76
2022/06/20 01:19:47;;;;;;;5.82;2.72;;;19.90;99.90;;;;;;4994937;28;20183;-76
2022/06/20 01:22:36;;;;;;;4.43;2.35;;;19.90;99.90;;;;;;5011129;28;20257;-76
2022/06/20 01:25:19;;;;;;;5.70;2.70;;;19.90;99.90;;;;;;5011163;28;20202;-76
2022/06/20 01:27:47;;;;;;;4.35;2.72;;;19.90;99.90;;;;;;5011125;28;20175;-76
2022/06/20 01:30:13;;;;;;;6.13;2.60;;;20.00;99.90;;;;;;4994899;28;20181;-76
2022/06/20 01:32:40;;;;;;;4.25;2.38;;;20.00;99.90;;;;;;4994583;28;20178;-76
2022/06/20 01:35:11;;;;;;;7.40;2.50;;;20.00;99.90;;;;;;4994797;28;20195;-76
2022/06/20 01:37:41;;;;;;;3.20;2.33;;;20.10;99.90;;;;;;5012418;28;20163;-76
2022/06/20 01:40:11;;;;;;;4.03;2.50;;;20.00;99.90;;;;;;5012589;28;20175;-76
2022/06/20 01:42:39;;;;;;;4.53;2.25;;;20.00;99.90;;;;;;5010938;28;20273;-76
2022/06/20 01:48:06;;;;;;;4.38;2.60;;;19.60;99.90;;;;;;5012884;28;20190;-76
2022/06/20 01:50:33;;;;;;;5.35;2.72;;;19.40;99.90;;;;;;5011171;28;20175;-76
2022/06/20 01:53:01;;;;;;;4.32;2.28;;;19.40;99.90;;;;;;5010855;28;20183;-76
2022/06/20 01:55:28;;;;;;;3.95;2.53;;;19.30;99.90;;;;;;5011007;28;20613;-76
2022/06/20 01:58:06;;;;;;;5.75;2.60;;;19.40;99.90;;;;;;4995001;28;20183;-76
2022/06/20 02:00:32;;;;;;;4.90;2.42;;;19.50;99.90;;;;;;5010871;28;20202;-76
2022/06/20 02:03:19;;;;;;;4.45;2.60;;;19.40;99.90;;;;;;5010688;28;20266;-76
2022/06/20 02:05:47;;;;;;;5.95;2.63;;;19.20;99.90;;;;;;5072540;22;20226;-76
2022/06/20 02:08:16;;;;;;;5.43;2.60;;;19.00;99.90;;;;;;5018279;28;20228;-77
2022/06/20 02:11:08;;;;;;;4.80;2.63;;;19.10;99.90;;;;;;5018456;28;20236;-77
2022/06/20 02:13:38;;;;;;;4.93;2.70;;;19.20;99.90;;;;;;5025921;28;20231;-76
2022/06/20 02:16:07;;;;;;;6.20;2.60;;;19.20;99.90;;;;;;5034339;28;20200;-76
2022/06/20 02:18:38;;;;;;;8.60;2.67;;;19.30;99.90;;;;;;5034711;28;20178;-77
2022/06/20 02:21:09;;;;;;;6.22;2.88;;;19.20;99.90;;;;;;5035903;28;20668;-77
2022/06/20 02:23:40;;;;;;;5.00;2.55;;;19.40;99.90;;;;;;5034334;28;20170;-76
2022/06/20 02:26:08;;;;;;;4.85;2.42;;;19.30;99.90;;;;;;5034718;28;20218;-76
2022/06/20 02:28:38;;;;;;;6.63;2.83;;;19.40;99.90;;;;;;5034693;28;20178;-77
2022/06/20 02:31:06;;;;;;;4.20;2.40;;;19.40;99.90;;;;;;5017558;28;20254;-76
2022/06/20 02:33:33;;;;;;;10.25;2.75;;;19.40;99.90;;;;;;5034492;28;20175;-76
2022/06/20 02:36:00;;;;;;;6.35;2.60;;;19.30;99.90;;;;;;5034898;28;20198;-76
2022/06/20 02:38:27;;;;;;;7.00;2.65;;;19.30;99.90;;;;;;5002319;28;20178;-76
2022/06/20 02:40:55;;;;;;;7.38;2.53;;;19.20;99.90;;;;;;5038539;28;20195;-77
2022/06/20 02:43:39;;;;;;;7.07;2.72;;;19.10;99.90;;;;;;5022394;28;20194;-77
2022/06/20 02:46:09;;;;;;;6.47;3.10;;;19.20;99.90;;;;;;5021531;28;20194;-77
2022/06/20 02:48:36;;;;;;;3.60;1.90;;;19.40;99.90;;;;;;5040230;28;20163;-77
2022/06/20 02:51:06;;;;;;;6.37;2.20;;;19.00;99.90;;;;;;5008242;28;20178;-76
2022/06/20 02:53:43;;;;;;;4.87;2.53;;;18.40;99.90;;;;;;5023738;28;20178;-76
2022/06/20 02:56:14;;;;;;;3.57;2.20;;;18.20;99.90;;;;;;5040468;28;20214;-76
2022/06/20 02:58:44;;;;;;;4.47;2.10;;;18.20;99.90;;;;;;5040633;28;20175;-77
2022/06/20 03:01:43;;;;;;;4.33;2.23;;;18.10;99.90;;;;;;5040358;28;20277;-76
2022/06/20 03:04:09;;;;;;;3.30;2.30;;;18.10;99.90;;;;;;5040470;28;20655;-76
2022/06/20 03:06:49;;;;;;;6.13;2.03;;;18.00;99.90;;;;;;5022213;28;20237;-76
2022/06/20 03:09:19;;;;;;;5.07;2.20;;;17.70;99.90;;;;;;5022622;28;20173;-76
2022/06/20 03:11:45;;;;;;;6.30;2.37;;;17.70;99.90;;;;;;5005125;28;20624;-76
2022/06/20 03:14:13;;;;;;;3.63;2.10;;;17.60;99.90;;;;;;5021489;28;20178;-76
2022/06/20 03:16:39;;;;;;;4.70;2.40;;;17.60;99.90;;;;;;5023234;28;20203;-76
2022/06/20 03:19:09;;;;;;;2.47;1.80;;;17.50;99.90;;;;;;5023067;28;20178;-76
2022/06/20 03:21:40;;;;;;;3.13;1.90;;;17.30;99.90;;;;;;5040480;28;20261;-76
2022/06/20 03:24:06;;;;;;;3.67;2.20;;;17.30;99.90;;;;;;5022874;28;20631;-77
2022/06/20 03:26:32;;;;;;;4.13;1.93;;;17.40;99.90;;;;;;5038048;28;20228;-76
2022/06/20 03:28:58;;;;;;;5.03;2.13;;;17.50;99.90;;;;;;5038210;28;20174;-76
2022/06/20 03:31:24;;;;;;;3.10;2.27;;;17.40;99.90;;;;;;5006087;28;20189;-75
2022/06/20 03:33:50;;;;;;;4.20;2.40;;;17.00;99.90;;;;;;5039166;28;20179;-76
2022/06/20 03:36:22;;;;;;;5.50;2.47;;;17.00;99.90;;;;;;5005976;28;20222;-76
2022/06/20 03:38:49;;;;;;;3.13;2.03;;;17.10;99.90;;;;;;5038399;28;20175;-76
2022/06/20 03:41:18;;;;;;;4.23;2.10;;;17.00;99.90;;;;;;5022308;28;20260;-76
2022/06/20 03:43:50;;;;;;;4.63;2.27;;;17.10;99.90;;;;;;5038011;28;20178;-76
2022/06/20 03:46:23;;;;;;;3.67;2.07;;;17.20;99.90;;;;;;5038019;28;20254;-77
2022/06/20 03:49:15;;;;;;;3.53;2.20;;;17.30;99.90;;;;;;5038573;28;20193;-76
2022/06/20 03:51:47;;;;;;;3.13;1.90;;;17.50;99.90;;;;;;5037905;28;20257;-77
2022/06/20 03:54:26;;;;;;;5.63;2.47;;;17.40;99.90;;;;;;5037137;28;20534;-77
2022/06/20 03:56:56;;;;;;;4.83;2.10;;;17.60;99.90;;;;;;5037695;28;20190;-77
2022/06/20 03:59:31;;;;;;;3.87;1.97;;;17.80;99.90;;;;;;5020822;28;20182;-76
2022/06/20 04:02:24;;;;;;;4.63;2.20;;;17.80;99.90;;;;;;5037163;28;20189;-77
2022/06/20 04:05:02;;;;;;;4.23;2.27;;;17.80;99.90;;;;;;5036942;28;20641;-76
2022/06/20 04:07:40;;;;;;;5.97;2.20;;;17.80;99.90;;;;;;5037483;28;20181;-77
2022/06/20 04:10:59;;;;;;;3.30;1.97;;;17.90;99.90;;;;;;5038040;28;20178;-76
2022/06/20 04:13:40;;;;;;;4.50;2.10;;;18.10;99.90;;;;;;4975118;28;20636;-75
2022/06/20 04:16:26;;;;;;;3.53;2.23;;;18.10;99.90;;;;;;5033398;28;20288;-75
2022/06/20 04:19:01;;;;;;;5.07;2.07;;;17.90;99.90;;;;;;5003083;28;20640;-75
2022/06/20 04:21:41;;;;;;;4.07;2.03;;;18.00;99.90;;;;;;5032751;28;20185;-75
2022/06/20 04:24:21;;;;;;;4.17;2.30;;;18.00;99.90;;;;;;5017820;28;20212;-75
2022/06/20 04:27:01;;;;;;;3.63;2.30;;;18.10;99.90;;;;;;5032860;28;20198;-75
2022/06/20 04:29:37;;;;;;;6.47;2.30;;;18.10;99.90;;;;;;5033735;28;20158;-75
2022/06/20 04:32:18;;;;;;;3.83;2.10;;;17.90;99.90;;;;;;5032598;28;20158;-75
2022/06/20 04:35:13;;;;;;;4.67;2.37;;;17.70;99.90;;;;;;5032551;28;20174;-75
2022/06/20 04:37:42;;;;;;;3.43;2.50;;;17.50;99.90;;;;;;5032585;28;20174;-75
2022/06/20 04:40:21;;;;;;;5.97;2.40;;;17.80;99.90;;;;;;5032447;28;20221;-75
2022/06/20 04:42:54;;;;;;;3.30;2.20;;;17.80;99.90;;;;;;5033314;28;20163;-75
2022/06/20 04:45:37;;;;;;;5.13;2.23;;;17.90;99.90;;;;;;5032486;28;20253;-75
2022/06/20 04:48:23;;;;;;;4.60;2.37;;;18.10;99.90;;;;;;5017239;28;20261;-76
2022/06/20 04:51:07;;;;;;;5.20;2.40;;;18.20;99.90;;;;;;5016094;28;20163;-75
2022/06/20 04:53:35;;;;;;;4.53;2.30;;;18.60;99.90;;;;;;5017628;28;20167;-75
2022/06/20 04:56:06;;;;;;;4.00;2.17;;;18.80;99.90;;;;;;5031881;28;20226;-75
2022/06/20 04:58:48;;;;;;;5.17;2.40;;;19.10;99.90;;;;;;5015353;28;20166;-76
2022/06/20 05:01:15;;;;;;;3.60;2.40;;;19.20;99.90;;;;;;5031047;28;20198;-76
2022/06/20 05:03:45;;;;;;;3.43;2.30;;;19.10;99.90;;;;;;5015906;28;20182;-74
2022/06/20 05:06:19;;;;;;;2.80;2.13;;;19.10;99.90;;;;;;5015413;28;20237;-75
2022/06/20 05:08:54;;;;;;;3.13;2.63;;;19.10;99.90;;;;;;5015528;28;20173;-74
2022/06/20 05:11:32;;;;;;;5.23;2.47;;;19.20;99.90;;;;;;5033327;28;20222;-75
2022/06/20 05:14:06;;;;;;;3.97;2.40;;;19.20;99.90;;;;;;5016201;28;20221;-75
2022/06/20 05:16:36;;;;;;;3.43;2.23;;;19.60;99.90;;;;;;5032876;28;20272;-76
2022/06/20 05:19:08;;;;;;;3.23;2.03;;;19.80;99.90;;;;;;5015245;28;20174;-75
2022/06/20 05:21:40;;;;;;;4.00;2.50;;;20.00;99.90;;;;;;5031795;28;20228;-75
2022/06/20 05:24:20;;;;;;;4.63;2.30;;;20.10;99.90;;;;;;5031711;28;20173;-75
2022/06/20 05:26:49;;;;;;;3.07;2.03;;;20.20;99.90;;;;;;5031633;28;20186;-75
2022/06/20 05:29:23;;;;;;;4.25;2.40;;;20.40;99.90;;;;;;4998911;28;20204;-75
2022/06/20 05:31:52;;;;;;;4.05;2.20;;;20.70;99.90;;;;;;5031683;28;20167;-75
2022/06/20 05:34:41;;;;;;;4.20;2.83;;;20.70;99.90;;;;;;5015380;28;20209;-75
2022/06/20 05:37:15;;;;;;;3.57;2.30;;;20.40;99.90;;;;;;5034111;28;20194;-74
2022/06/20 05:39:56;;;;;;;3.60;2.37;;;19.60;99.90;;;;;;5035284;28;20166;-74
2022/06/20 05:42:22;;;;;;;4.50;2.30;;;18.90;99.90;;;;;;5016341;28;20206;-75
2022/06/20 05:44:48;;;;;;;3.73;2.27;;;18.90;99.90;;;;;;5031501;28;20228;-75
2022/06/20 05:47:30;;;;;;;6.37;2.40;;;19.30;99.90;;;;;;5011393;28;20234;-75
2022/06/20 05:50:15;;;;;;;5.27;2.37;;;19.70;99.90;;;;;;5011662;28;20174;-75
2022/06/20 05:52:43;;;;;;;7.47;2.40;;;20.00;99.90;;;;;;5011827;28;20206;-75
2022/06/20 05:55:36;;;;;;;4.63;2.00;;;20.30;99.90;;;;;;4995793;28;20198;-74
2022/06/20 05:58:04;;;;;;;3.67;2.30;;;20.90;99.90;;;;;;5011514;28;20179;-74
2022/06/20 06:00:33;;;;;;;3.08;2.10;;;20.50;99.90;;;;;;4994975;28;20305;-75
2022/06/20 06:03:03;;;;;;;4.90;2.40;;;20.60;99.90;;;;;;5011358;28;20262;-75
2022/06/20 06:05:33;;;;;;;5.63;2.38;;;20.40;99.90;;;;;;5011437;28;20221;-76
2022/06/20 06:08:27;;;;;;;3.80;2.40;;;20.40;99.90;;;;;;5011357;28;20175;-76
2022/06/20 06:11:17;;;;;;;3.60;2.00;;;20.30;99.90;;;;;;5002450;28;20183;-76
2022/06/20 06:13:52;;;;;;;5.25;2.25;;;20.20;99.90;;;;;;5013958;28;20175;-75
2022/06/20 06:19:32;;;;;;;4.70;2.45;;;20.20;99.90;;;;;;5016693;28;20166;-76
2022/06/20 06:22:05;;;;;;;4.43;2.57;;;19.70;99.90;;;;;;5031737;28;20203;-77
2022/06/20 06:24:34;;;;;;;3.30;2.33;;;19.30;99.90;;;;;;4999174;28;20203;-76
2022/06/20 06:27:01;;;;;;;5.27;2.10;;;19.30;99.90;;;;;;5014892;28;20195;-76
2022/06/20 06:29:44;;;;;;;3.92;2.20;;;19.40;99.90;;;;;;4998611;28;20175;-76
2022/06/20 06:32:47;;;;;;;3.10;2.20;;;19.80;99.90;;;;;;5014743;28;20171;-76
2022/06/20 06:35:18;;;;;;;3.67;2.50;;;19.80;99.90;;;;;;5015073;28;20610;-76
2022/06/20 06:38:05;;;;;;;4.43;2.50;;;19.50;99.90;;;;;;5015157;28;20175;-76
2022/06/20 06:40:51;;;;;;;4.83;2.47;;;19.20;99.90;;;;;;5014971;28;20205;-76
2022/06/20 06:43:24;;;;;;;3.83;2.43;;;19.60;99.90;;;;;;4998227;28;20669;-76
2022/06/20 06:45:53;;;;;;;2.73;1.97;;;19.60;99.90;;;;;;5014845;28;20191;-76
2022/06/20 06:48:24;;;;;;;3.53;2.07;;;19.60;99.90;;;;;;5014736;28;20550;-76
2022/06/20 06:50:59;;;;;;;5.13;2.50;;;19.80;99.90;;;;;;5015338;28;20197;-76
2022/06/20 06:53:56;;;;;;;3.43;2.27;;;20.10;99.90;;;;;;5031042;28;20179;-76
2022/06/20 06:57:02;;;;;;;3.15;2.35;;;20.40;99.90;;;;;;5014368;28;20207;-76
2022/06/20 06:59:37;;;;;;;4.78;2.30;;;20.80;99.90;;;;;;4993964;28;20193;-76
2022/06/20 07:02:11;;;;;;;5.03;2.50;;;20.80;99.90;;;;;;5015363;28;20183;-76
2022/06/20 07:05:02;;;;;;;3.83;2.30;;;20.50;99.90;;;;;;5015215;28;20274;-76
2022/06/20 07:07:50;;;;;;;4.75;2.10;;;20.90;99.90;;;;;;5030686;28;20661;-76
2022/06/20 07:10:33;;;;;;;5.93;2.53;;;21.40;99.90;;;;;;5014205;28;20178;-76
2022/06/20 07:13:15;;;;;;;3.78;2.25;;;21.30;99.90;;;;;;5015248;28;20159;-76
2022/06/20 07:15:43;;;;;;;4.05;2.60;;;20.90;99.90;;;;;;5014371;28;20195;-76
2022/06/20 07:18:42;;;;;;;7.72;2.60;;;20.70;99.90;;;;;;5014155;28;20665;-76
2022/06/20 07:21:15;;;;;;;3.63;2.28;;;20.60;99.90;;;;;;5003412;28;20206;-76
2022/06/20 07:23:42;;;;;;;3.78;2.53;;;20.40;99.90;;;;;;5013651;28;20178;-76
2022/06/20 07:26:09;;;;;;;6.30;2.13;;;19.80;99.90;;;;;;5013129;28;20201;-76
2022/06/20 07:28:43;;;;;;;5.45;2.80;;;19.70;99.90;;;;;;5014047;28;20182;-76
2022/06/20 07:34:52;;;;;;;3.53;2.60;;;19.40;99.90;;;;;;5015137;28;20158;-76
2022/06/20 07:37:37;;;;;;;5.57;2.77;;;19.10;99.90;;;;;;4997716;28;20207;-76
2022/06/20 07:40:12;;;;;;;4.10;2.20;;;19.10;99.90;;;;;;5014124;28;20256;-76
2022/06/20 07:42:50;;;;;;;7.78;2.50;;;19.50;99.90;;;;;;5014870;28;20235;-76
2022/06/20 07:45:39;;;;;;;4.47;2.53;;;20.30;99.90;;;;;;5013466;28;20177;-76
2022/06/20 07:48:31;;;;;;;4.68;2.40;;;20.10;99.90;;;;;;4997252;28;20179;-76
2022/06/20 07:51:08;;;;;;;4.33;2.27;;;20.50;99.90;;;;;;5013471;28;20182;-76
2022/06/20 07:53:49;;;;;;;4.85;2.30;;;20.70;99.90;;;;;;5029625;28;20574;-76
2022/06/20 07:56:20;;;;;;;3.58;2.40;;;20.90;99.90;;;;;;5013685;28;20210;-76
2022/06/20 07:58:54;;;;;;;4.80;2.65;;;20.90;99.90;;;;;;5013613;28;20167;-76
2022/06/20 08:01:57;;;;;;;3.00;2.47;;;20.80;99.90;;;;;;5013219;28;20210;-76
2022/06/20 08:04:28;;;;;;;2.97;2.47;;;20.30;99.90;;;;;;4966972;28;20189;-76
2022/06/20 08:07:00;;;;;;;3.40;2.42;;;20.10;99.90;;;;;;5053469;22;20226;-76
2022/06/20 08:09:38;;;;;;;3.90;2.63;;;20.10;99.90;;;;;;5013805;28;20175;-76
2022/06/20 08:12:19;;;;;;;3.53;2.33;;;20.20;99.90;;;;;;5013696;28;20265;-76
2022/06/20 08:14:50;;;;;;;3.95;2.40;;;20.10;99.90;;;;;;5012584;28;20183;-76
2022/06/20 08:17:16;;;;;;;4.80;2.83;;;20.20;99.90;;;;;;5012410;28;20194;-76
2022/06/20 08:19:44;;;;;;;3.65;2.80;;;20.30;99.90;;;;;;5012818;28;20186;-76
2022/06/20 08:22:36;;;;;;;3.25;2.40;;;20.30;99.90;;;;;;5012163;28;20211;-76
2022/06/20 08:25:09;;;;;;;4.25;2.28;;;20.50;99.90;;;;;;5001785;28;20234;-76
2022/06/20 08:27:48;;;;;;;4.15;2.63;;;20.80;99.90;;;;;;5012178;28;20214;-76
2022/06/20 08:30:15;;;;;;;3.67;2.67;;;20.90;99.90;;;;;;5011760;28;20182;-76
2022/06/20 08:33:04;;;;;;;4.63;2.92;;;20.60;99.90;;;;;;5011771;28;20244;-76
2022/06/20 08:35:33;;;;;;;4.65;3.03;;;20.30;99.90;;;;;;5011793;28;20171;-76
2022/06/20 08:38:40;;;;;;;3.53;2.78;;;20.00;99.90;;;;;;5011637;28;20202;-76
2022/06/20 08:41:18;;;;;;;3.80;2.90;;;19.80;99.90;;;;;;5004167;28;20631;-76
2022/06/20 08:43:59;;;;;;;3.35;3.05;;;19.70;99.90;;;;;;5011955;28;20179;-76
2022/06/20 08:46:45;;;;;;;3.60;2.90;;;19.80;99.90;;;;;;5011781;28;20197;-76
2022/06/20 08:49:20;;;;;;;3.50;2.80;;;19.90;99.90;;;;;;5012076;28;20179;-76
2022/06/20 08:52:06;;;;;;;4.15;2.78;;;20.10;99.90;;;;;;5011797;28;20190;-77
2022/06/20 08:54:43;;;;;;;3.95;2.72;;;20.00;99.90;;;;;;5012277;28;20187;-77
2022/06/20 08:57:15;;;;;;;6.28;2.63;;;19.80;99.90;;;;;;5011781;28;20241;-76
2022/06/20 08:59:43;;;;;;;3.67;2.55;;;19.60;99.90;;;;;;5013172;28;20177;-76
2022/06/20 09:02:46;;;;;;;3.85;2.65;;;19.50;99.90;;;;;;5011667;28;20206;-77
2022/06/20 09:05:47;;;;;;;2.83;2.50;;;19.40;99.90;;;;;;5011980;28;20167;-76
2022/06/20 09:08:25;;;;;;;2.73;2.50;;;19.30;99.90;;;;;;5011643;28;20178;-77
2022/06/20 09:11:25;;;;;;;3.13;2.30;;;19.00;99.90;;;;;;5011682;28;20225;-76
2022/06/20 09:14:28;;;;;;;2.40;2.20;;;18.80;99.90;;;;;;5011603;28;20186;-77
2022/06/20 09:17:18;;;;;;;1.90;1.80;;;18.70;99.90;;;;;;5011709;28;20194;-77
2022/06/20 09:20:08;;;;;;;1.73;1.30;;;18.80;99.90;;;;;;5012217;28;20167;-77
2022/06/20 09:22:52;;;;;;;1.60;1.50;;;18.60;99.90;;;;;;5012820;28;20178;-76
2022/06/20 09:25:39;;;;;;;1.50;1.40;;;18.40;99.90;;;;;;5012200;28;20163;-76
2022/06/20 09:28:10;;;;;;;2.43;1.50;;;18.30;99.90;;;;;;5011527;28;20167;-79
2022/06/20 09:30:48;;;;;;;2.57;1.40;;;18.50;99.90;;;;;;5011665;28;20179;-76
2022/06/20 09:33:59;;;;;;;4.37;1.90;;;18.80;99.90;;;;;;5011470;28;20273;-77
2022/06/20 09:36:36;;;;;;;1.27;1.13;;;18.80;99.90;;;;;;4988422;28;20269;-77
2022/06/20 09:39:29;;;;;;;1.30;1.20;;;18.80;99.90;;;;;;5011639;28;20179;-77
2022/06/20 09:42:19;;;;;;;2.67;1.47;;;18.70;99.90;;;;;;5010715;28;20204;-77
2022/06/20 09:45:00;;;;;;;2.33;1.50;;;18.60;99.90;;;;;;5012438;28;20228;-76
2022/06/20 09:47:33;;;;;;;1.30;1.20;;;18.50;99.90;;;;;;5011919;28;20229;-76
2022/06/20 09:50:23;;;;;;;9.20;3.57;;;18.50;99.90;;;;;;5015419;28;20205;-76
2022/06/20 09:53:19;;;;;;;15.47;4.03;;;18.40;99.90;;;;;;5015082;28;20171;-76
2022/06/20 09:56:02;;;;;;;4.53;1.87;;;18.30;99.90;;;;;;5015210;28;20206;-75
2022/06/20 09:58:31;;;;;;;12.10;4.53;;;18.10;99.90;;;;;;5015082;28;20173;-75
2022/06/20 10:01:07;;;;;;;1.60;1.40;;;18.30;99.90;;;;;;5015103;28;20590;-75
2022/06/20 10:03:53;;;;;;;0.90;0.90;;;18.30;99.90;;;;;;5016554;28;20234;-75
2022/06/20 10:06:38;;;;;;;7.37;2.20;;;18.30;99.90;;;;;;5014698;28;20579;-75
2022/06/20 10:09:29;;;;;;;3.13;1.40;;;18.30;99.90;;;;;;5014955;28;20175;-75
2022/06/20 10:12:12;;;;;;;1.97;1.00;;;18.10;99.90;;;;;;5014704;28;20190;-74
2022/06/20 10:14:59;;;;;;;4.40;1.50;;;17.80;99.90;;;;;;5015990;28;20169;-73
2022/06/20 10:17:33;;;;;;;1.43;1.33;;;17.80;99.90;;;;;;5014803;28;20672;-73
2022/06/20 10:20:14;;;;;;;2.97;1.30;;;18.40;99.90;;;;;;5015973;28;20217;-74
2022/06/20 10:22:51;;;;;;;2.43;1.20;;;18.30;99.90;;;;;;5014376;28;20589;-74
2022/06/20 10:25:33;;;;;;;1.97;0.90;;;18.50;99.90;;;;;;5014881;28;20179;-74
2022/06/20 10:28:05;;;;;;;1.20;0.80;;;18.60;99.90;;;;;;5014612;28;20213;-74
2022/06/20 10:30:49;;;;;;;1.00;1.00;;;18.40;99.90;;;;;;5014611;28;20175;-74
2022/06/20 10:33:44;;;;;;;1.10;1.00;;;17.80;99.90;;;;;;5014460;28;20233;-74
2022/06/20 10:36:35;;;;;;;1.10;1.00;;;17.50;99.90;;;;;;5014301;28;20565;-75
2022/06/20 10:39:29;;;;;;;1.63;1.03;;;17.20;99.90;;;;;;5014316;28;20171;-74
2022/06/20 10:42:23;;;;;;;1.67;0.90;;;16.90;99.90;;;;;;5014267;28;20546;-75
2022/06/20 10:45:10;;;;;;;1.00;1.00;;;16.50;99.90;;;;;;5014291;28;20238;-75
2022/06/20 10:48:11;;;;;;;1.20;1.10;;;16.50;99.90;;;;;;5014381;28;20202;-75
2022/06/20 10:50:41;;;;;;;1.80;1.10;;;16.30;99.90;;;;;;4991551;28;20186;-75
2022/06/20 10:53:35;;;;;;;2.03;1.10;;;16.20;99.90;;;;;;5015157;28;20159;-75
2022/06/20 10:56:33;;;;;;;1.83;1.00;;;16.20;99.90;;;;;;5014171;28;20666;-75
2022/06/20 10:59:07;;;;;;;1.20;1.10;;;16.30;99.90;;;;;;5012938;28;20525;-75
2022/06/20 11:01:50;;;;;;;1.10;1.00;;;16.40;99.90;;;;;;5013887;28;20256;-75
2022/06/20 11:04:26;;;;;;;1.07;1.03;;;16.40;99.90;;;;;;5030287;28;20223;-75
2022/06/20 11:07:13;;;;;;;1.97;1.10;;;16.00;99.90;;;;;;5013629;28;20206;-75
2022/06/20 11:10:05;;;;;;;1.03;1.00;;;16.10;99.90;;;;;;5014987;28;20182;-75
2022/06/20 11:12:52;;;;;;;1.23;1.10;;;16.10;99.90;;;;;;5013368;28;20195;-75
2022/06/20 11:15:37;;;;;;;0.80;0.80;;;16.20;99.90;;;;;;5013718;28;20174;-75
2022/06/20 11:18:21;;;;;;;1.73;0.90;;;16.30;99.90;;;;;;5013728;28;20637;-75
2022/06/20 11:20:58;;;;;;;1.53;1.00;;;16.30;99.90;;;;;;5013371;28;20175;-75
2022/06/20 11:23:34;;;;;;;1.00;0.90;;;16.30;99.90;;;;;;5013552;28;20175;-75
2022/06/20 11:26:43;;;;;;;1.00;0.90;;;16.20;99.90;;;;;;5013446;28;20190;-75
2022/06/20 11:29:36;;;;;;;1.90;1.00;;;15.90;99.90;;;;;;5013440;28;20182;-75
2022/06/20 11:32:23;;;;;;;1.10;1.00;;;15.60;99.90;;;;;;5013258;28;20203;-75
2022/06/20 11:35:02;;;;;;;1.20;1.10;;;15.60;99.90;;;;;;5013289;28;20175;-75
2022/06/20 11:38:11;;;;;;;0.90;0.90;;;15.70;99.90;;;;;;5013169;28;20263;-74
2022/06/20 11:40:57;;;;;;;1.20;1.10;;;15.90;99.90;;;;;;5013340;28;20545;-75
2022/06/20 11:43:32;;;;;;;1.47;1.20;;;16.00;99.90;;;;;;5013236;28;20171;-76
2022/06/20 11:46:18;;;;;;;1.17;1.07;;;16.10;99.90;;;;;;5013179;28;20197;-75
2022/06/20 11:49:05;;;;;;;1.83;1.20;;;16.00;99.90;;;;;;5014443;28;20167;-75
2022/06/20 11:51:37;;;;;;;1.13;1.00;;;15.90;99.90;;;;;;5013010;28;20689;-75
2022/06/20 11:54:05;;;;;;;1.43;1.30;;;16.00;99.90;;;;;;5012847;28;20174;-75
2022/06/20 11:56:48;;;;;;;1.67;1.20;;;15.70;99.90;;;;;;5014137;28;20227;-75
2022/06/20 11:59:44;;;;;;;1.20;1.10;;;15.80;99.90;;;;;;5013192;28;20182;-75
2022/06/20 12:02:29;;;;;;;1.40;1.30;;;15.70;99.90;;;;;;5012683;28;20171;-76
2022/06/20 12:05:15;;;;;;;1.83;1.30;;;15.90;99.90;;;;;;5012987;28;20174;-76
2022/06/20 12:07:50;;;;;;;1.93;1.50;;;15.70;99.90;;;;;;5012499;28;20218;-76
2022/06/20 12:10:50;;;;;;;3.83;1.50;;;15.60;99.90;;;;;;5012509;28;20210;-76
2022/06/20 12:13:46;;;;;;;1.57;1.47;;;15.50;99.90;;;;;;5012432;28;20182;-76
2022/06/20 12:17:02;;;;;;;1.60;1.50;;;15.60;99.90;;;;;;5012691;28;20195;-76
2022/06/20 12:25:28;;;;;;;2.47;1.30;;;15.60;99.90;;;;;;5007810;28;20190;-76
2022/06/20 12:27:54;;;;;;;1.53;1.30;;;15.40;99.90;;;;;;5029346;28;20532;-76
2022/06/20 12:30:20;;;;;;;1.20;1.10;;;15.60;99.90;;;;;;5012494;28;20185;-76
2022/06/20 12:32:50;;;;;;;1.30;1.20;;;15.60;99.90;;;;;;5012039;28;20311;-76
2022/06/20 12:35:45;;;;;;;2.10;1.30;;;15.40;99.90;;;;;;5012431;28;20662;-76
2022/06/20 12:38:43;;;;;;;1.10;1.00;;;15.20;99.90;;;;;;5013181;28;20262;-76
2022/06/20 12:41:13;;;;;;;2.27;1.10;;;15.10;99.90;;;;;;5012174;28;20193;-76
2022/06/20 12:44:17;;;;;;;1.33;1.10;;;15.10;99.90;;;;;;5012077;28;20243;-76
2022/06/20 12:47:01;;;;;;;1.20;1.10;;;15.00;99.90;;;;;;4989406;28;20202;-76
2022/06/20 12:49:39;;;;;;;1.10;1.00;;;14.90;99.90;;;;;;5012239;28;20182;-76
2022/06/20 12:52:42;;;;;;;1.20;1.10;;;14.90;99.90;;;;;;5011842;28;20186;-76
2022/06/20 12:55:34;;;;;;;1.23;0.97;;;14.70;99.90;;;;;;5012098;28;20265;-76
2022/06/20 12:58:35;;;;;;;1.47;0.90;;;14.80;99.90;;;;;;5011883;28;20171;-76
2022/06/20 13:01:18;;;;;;;1.90;1.10;;;15.10;99.90;;;;;;5011808;28;20660;-76
2022/06/20 13:04:07;;;;;;;1.10;1.00;;;15.30;99.90;;;;;;5011803;28;20262;-76
2022/06/20 13:06:57;;;;;;;1.27;1.00;;;15.30;99.90;;;;;;5011524;28;20206;-76
2022/06/20 13:09:53;;;;;;;0.93;0.90;;;15.50;99.90;;;;;;5011569;28;20646;-76
2022/06/20 13:12:33;;;;;;;1.10;1.00;;;15.40;99.90;;;;;;5011364;28;20386;-76
2022/06/20 13:15:40;;;;;;;0.90;0.90;;;15.50;99.90;;;;;;5011538;28;20668;-76
2022/06/20 13:18:47;;;;;;;0.60;0.60;;;15.70;99.90;;;;;;5010956;28;20182;-76
2022/06/20 13:21:25;;;;;;;1.30;1.00;;;15.70;99.90;;;;;;5012663;28;20174;-76
2022/06/20 13:24:12;;;;;;;2.90;1.00;;;15.70;99.90;;;;;;5010709;28;20181;-76
2022/06/20 13:27:09;;;;;;;1.30;1.00;;;15.80;99.90;;;;;;5011457;28;20684;-76
2022/06/20 13:29:43;;;;;;;1.10;0.90;;;15.60;99.90;;;;;;5012642;28;20202;-75
2022/06/20 13:32:11;;;;;;;1.13;1.00;;;15.60;99.90;;;;;;5011431;28;20191;-75
2022/06/20 13:34:46;;;;;;;2.03;1.00;;;15.50;99.90;;;;;;5012437;28;20193;-74
2022/06/20 13:37:22;;;;;;;1.23;1.00;;;15.30;99.90;;;;;;5011112;28;20241;-74
2022/06/20 13:40:20;;;;;;;1.00;0.90;;;15.30;99.90;;;;;;5011136;28;20170;-74
2022/06/20 13:43:08;;;;;;;1.07;0.93;;;15.40;99.90;;;;;;5011244;28;20237;-74
2022/06/20 13:45:46;;;;;;;1.13;1.03;;;15.40;99.90;;;;;;5011048;28;20633;-75
2022/06/20 13:48:29;;;;;;;1.40;1.00;;;15.60;99.90;;;;;;5011134;28;20179;-75
2022/06/20 13:51:07;;;;;;;0.80;0.80;;;15.60;99.90;;;;;;5010913;28;20209;-75
2022/06/20 13:53:58;;;;;;;1.23;0.90;;;15.50;99.90;;;;;;5011082;28;20220;-74
2022/06/20 13:56:42;;;;;;;1.23;0.90;;;15.70;99.90;;;;;;5000454;28;20555;-74
2022/06/20 13:59:28;;;;;;;0.93;0.83;;;15.80;99.90;;;;;;5011055;28;20229;-75
2022/06/20 14:01:58;;;;;;;2.17;1.07;;;15.80;99.90;;;;;;5010803;28;20201;-75